Tropical Cyclones
[Index]
Main Index Home Page Stock Weather Photos Extreme Storms Discussion Storm News and Storm Chasing Reports Tropical Cyclones / Hurricanes / Typhoons Weather Data and Links Wild Fires / Bushfires Weather Observation Techniques Weather Picture Catalogue Tornado Pictures and Reports Stock Video Footage and DVDs for sale
Season 2015-2016 Tropical Cyclone VICTOR Track Map
Season 2015-2016 Summaries: [BoM-AU] [JTWC-AU] [JTWC-SIO] [JTWC-SPAC] [JTWC-SH]
<<- Previous TC | JTWC 2015-2016 Season | Next TC ->>

click for intensity scale information  Lat/long Grid: Show Hide

 Date Labels: Show Hide

Joint Typhoon Warning Centre Cyclone Data

Name: VICTOR

14 Jan 2016 06:00 UTC to 23 Jan 2016 00:00 UTC

    date/time    lat    long     hPa   cat  kts
2016-01-14 06   13.4   164.7W   1004         25          
2016-01-14 12   13.6   165.0W   1000         30          
2016-01-14 18   13.8   165.3W    993         35          
2016-01-15 00   14.0   165.7W    992    1    40          
2016-01-15 06   14.1   165.9W    989    1    45          
2016-01-15 12   14.3   166.0W    982    2    55          
2016-01-15 12   14.3   166.0W    982    2    55          
2016-01-15 18   14.4   166.0W    974    2    65          
2016-01-15 18   14.4   166.0W    974    2    65          
2016-01-16 00   14.7   166.1W    970    2    70          
2016-01-16 00   14.7   166.1W    970    2    70          
2016-01-16 00   14.7   166.1W    970    2    70          
2016-01-16 06   14.8   166.2W    967    3    75          
2016-01-16 06   14.8   166.2W    967    3    75          
2016-01-16 06   14.8   166.2W    967    3    75          
2016-01-16 12   14.9   166.3W    967    3    75          
2016-01-16 12   14.9   166.3W    967    3    75          
2016-01-16 12   14.9   166.3W    967    3    75          
2016-01-16 18   15.0   166.4W    967    3    75          
2016-01-16 18   15.0   166.4W    967    3    75          
2016-01-16 18   15.0   166.4W    967    3    75          
2016-01-17 00   15.6   166.5W    970    2    70          
2016-01-17 00   15.6   166.5W    970    2    70          
2016-01-17 00   15.6   166.5W    970    2    70          
2016-01-17 06   16.2   166.5W    970    2    70          
2016-01-17 06   16.2   166.5W    970    2    70          
2016-01-17 06   16.2   166.5W    970    2    70          
2016-01-17 12   16.7   166.4W    970    2    70          
2016-01-17 12   16.7   166.4W    970    2    70          
2016-01-17 12   16.7   166.4W    970    2    70          
2016-01-17 18   17.3   166.2W    974    2    65          
2016-01-17 18   17.3   166.2W    974    2    65          
2016-01-18 00   18.1   166.0W    970    2    70          
2016-01-18 00   18.1   166.0W    970    2    70          
2016-01-18 00   18.1   166.0W    970    2    70          
2016-01-18 06   18.8   166.0W    963    3    80          
2016-01-18 06   18.8   166.0W    963    3    80          
2016-01-18 06   18.8   166.0W    963    3    80          
2016-01-18 12   19.5   166.1W    959    3    85          
2016-01-18 12   19.5   166.1W    959    3    85          
2016-01-18 12   19.5   166.1W    959    3    85          
2016-01-18 18   20.1   166.4W    956    3    90          
2016-01-18 18   20.1   166.4W    956    3    90          
2016-01-18 18   20.1   166.4W    956    3    90          
2016-01-19 00   20.6   166.8W    956    3    90          
2016-01-19 00   20.6   166.8W    956    3    90          
2016-01-19 00   20.6   166.8W    956    3    90          
2016-01-19 06   20.9   167.1W    959    3    85          
2016-01-19 06   20.9   167.1W    959    3    85          
2016-01-19 06   20.9   167.1W    959    3    85          
2016-01-19 12   21.1   167.5W    967    3    75          
2016-01-19 12   21.1   167.5W    967    3    75          
2016-01-19 12   21.1   167.5W    967    3    75          
2016-01-19 18   21.3   168.0W    970    2    70          
2016-01-19 18   21.3   168.0W    970    2    70          
2016-01-19 18   21.3   168.0W    970    2    70          
2016-01-20 00   21.4   168.4W    970    2    70          
2016-01-20 00   21.4   168.4W    970    2    70          
2016-01-20 00   21.4   168.4W    970    2    70          
2016-01-20 06   21.5   168.8W    970    2    70          
2016-01-20 06   21.5   168.8W    970    2    70          
2016-01-20 12   21.5   169.2W    970    2    70          
2016-01-20 12   21.5   169.2W    970    2    70          
2016-01-20 18   21.5   169.5W    970    2    70          
2016-01-20 18   21.5   169.5W    970    2    70          
2016-01-21 00   21.5   170.0W    974    2    65          
2016-01-21 00   21.5   170.0W    974    2    65          
2016-01-21 06   21.4   170.8W    978    2    60          
2016-01-21 06   21.4   170.8W    978    2    60          
2016-01-21 12   21.4   171.5W    982    2    55          
2016-01-21 12   21.4   171.5W    982    2    55          
2016-01-21 18   21.6   172.3W    985    1    50          
2016-01-22 00   21.7   173.3W    993    1    40          
2016-01-22 06   21.9   174.4W    996         35          
2016-01-22 12   22.3   175.4W   1000         30          
2016-01-22 18   23.0   176.1W   1004         25          
2016-01-23 00   23.8   176.6W   1004         25          
Winds are 1-min average.

Tropical cyclone tracks developed by Michael Bath using data from the Joint Typhoon Warning Centre Best Tracks and Google Maps.


[Australian Severe Weather index] [Copyright Notice] [Email Contacts] [Search This Site] [Privacy Policy]
Document: tropical_cyclone_victor.htm Updated: 28 June 2017